LYBE/BEG METAR and TAF weather

Enter ICAO airport designator
Station Type Date Time Source
LYBE METAR 2018/07/19 07:30 UTC NOAA

LYBE 190730Z 28010KT 9999 -RA BKN030 20/17 Q1011 NOSIG


Station Type Date Time Source
LYBE Decoded METAR 2018/07/19 07:30 UTC NOAA

Beograd / Surcin, Serbia and Montenegro (LYBE) 44-49N 020-17E 99M
Jul 19, 2018 - 03:30 AM EDT / 2018.07.19 0730 UTC
Wind: from the W (280 degrees) at 12 MPH (10 KT):0
Visibility: greater than 7 mile(s):0
Sky conditions: mostly cloudy
Weather: light rain
Temperature: 68 F (20 C)
Dew Point: 62 F (17 C)
Relative Humidity: 82%
Pressure (altimeter): 29.85 in. Hg (1011 hPa)
ob: LYBE 190730Z 28010KT 9999 -RA BKN030 20/17 Q1011 NOSIG
cycle: 7

Station Type Date Time Source
LYBE TAF 2018/07/19 06:21 UTC NOAA

TAF LYBE 190500Z 1906/2006 30009KT 9999 BKN033 TX24/1913Z TN18/2003Z
TEMPO 1906/1908 RA BKN013 BKN030 PROB40
TEMPO 1911/1916 SHRA SCT030TCU BKN030


Example: see airport list